Mellott, Indiana
Current Conditions -  °F | °C
As of 5:54 AM on Tuesday 21 Oct 2014 (Local Time) from KLAF Reporting Station
Overcast Overcast  
Wind Chill: 44°   Ceiling: 4800
Heat Index: 47°   Visibility: 8mi
Dew Point: 45°   Wind: 6mph
Humidity: 93%   Direction: 320°NW
Pressure: 30.02"   Gusts: NA
Location:  40.17°N, 87.15°W
Report Text: KLAF 210954Z AUTO 32005KT 8SM OVC048 08/07 A3002 RMK AO2 SLP164 T00830072 TSNO
Loading
Personal Weather Stations






























Interactive Weather Map
Tropical Storm Tracking
New forecast layout! Learn more

10-Day Weather Forecast

Advertisements
Track Severe Weather on mobile